Time,TemperatureF,DewpointF,PressureIn,WindDirection,WindDirectionDegrees,WindSpeedMPH,WindSpeedGustMPH,Humidity,HourlyPrecipIn,Conditions,Clouds,dailyrainin,SoftwareType,DateUTC
2013-07-14 00:03:00,51.7,50.0,29.77,North,360,0.0,-999.0,92,-99.99,,,0.00,weatherlink.com 1.10,2013-07-14 06:03:00,
2013-07-14 00:18:00,51.6,49.0,29.76,North,360,0.0,-999.0,92,-99.99,,,0.00,weatherlink.com 1.10,2013-07-14 06:18:00,
2013-07-14 00:33:00,51.5,49.0,29.75,NNW,340,5.0,-999.0,92,-99.99,,,0.00,weatherlink.com 1.10,2013-07-14 06:33:00,
2013-07-14 00:48:00,51.3,49.0,29.75,NW,309,4.0,-999.0,92,-99.99,,,0.00,weatherlink.com 1.10,2013-07-14 06:48:00,
2013-07-14 01:03:00,51.0,49.0,29.75,WNW,292,3.0,-999.0,92,-99.99,,,0.00,weatherlink.com 1.10,2013-07-14 07:03:00,
2013-07-14 01:18:00,50.9,49.0,29.74,WNW,285,4.0,-999.0,92,-99.99,,,0.00,weatherlink.com 1.10,2013-07-14 07:18:00,
2013-07-14 01:33:00,51.1,49.0,29.74,WNW,285,0.0,-999.0,92,-99.99,,,0.00,weatherlink.com 1.10,2013-07-14 07:33:00,
2013-07-14 01:48:00,51.3,49.0,29.74,North,360,0.0,-999.0,91,-99.99,,,0.00,weatherlink.com 1.10,2013-07-14 07:48:00,
2013-07-14 02:03:00,51.2,48.0,29.74,North,360,0.0,-999.0,90,-99.99,,,0.00,weatherlink.com 1.10,2013-07-14 08:03:00,
2013-07-14 02:18:00,51.1,48.0,29.75,NW,304,3.0,-999.0,90,-99.99,,,0.00,weatherlink.com 1.10,2013-07-14 08:18:00,
2013-07-14 02:33:00,51.1,48.0,29.75,NNW,337,6.0,-999.0,89,-99.99,,,0.00,weatherlink.com 1.10,2013-07-14 08:33:00,
2013-07-14 02:48:00,51.1,49.0,29.74,NNE,15,3.0,-999.0,92,-99.99,,,0.00,weatherlink.com 1.10,2013-07-14 08:48:00,
2013-07-14 03:03:00,51.5,48.0,29.74,NNW,336,3.0,-999.0,88,-99.99,,,0.00,weatherlink.com 1.10,2013-07-14 09:03:00,
2013-07-14 03:18:00,51.5,48.0,29.74,NW,305,6.0,-999.0,86,-99.99,,,0.00,weatherlink.com 1.10,2013-07-14 09:18:00,
2013-07-14 03:33:00,51.8,48.0,29.75,NNW,338,0.0,-999.0,85,-99.99,,,0.00,weatherlink.com 1.10,2013-07-14 09:33:00,
2013-07-14 03:48:00,52.6,47.0,29.76,NW,308,7.0,-999.0,81,-99.99,,,0.00,weatherlink.com 1.10,2013-07-14 09:48:00,
2013-07-14 04:03:00,53.2,48.0,29.76,NW,309,6.0,-999.0,81,-99.99,,,0.00,weatherlink.com 1.10,2013-07-14 10:03:00,
2013-07-14 04:18:00,52.9,47.0,29.77,NNW,329,6.0,-999.0,81,-99.99,,,0.00,weatherlink.com 1.10,2013-07-14 10:18:00,
2013-07-14 04:33:00,53.5,47.0,29.77,North,355,4.0,-999.0,78,-99.99,,,0.00,weatherlink.com 1.10,2013-07-14 10:33:00,
2013-07-14 04:48:00,53.5,47.0,29.77,NNW,338,2.0,-999.0,79,-99.99,,,0.00,weatherlink.com 1.10,2013-07-14 10:48:00,
2013-07-14 05:03:00,52.8,46.0,29.77,NNW,329,6.0,-999.0,79,-99.99,,,0.00,weatherlink.com 1.10,2013-07-14 11:03:00,
2013-07-14 05:18:00,53.0,47.0,29.77,WNW,301,6.0,-999.0,79,-99.99,,,0.00,weatherlink.com 1.10,2013-07-14 11:18:00,
2013-07-14 05:33:00,53.0,46.0,29.77,WNW,294,7.0,-999.0,77,-99.99,,,0.00,weatherlink.com 1.10,2013-07-14 11:33:00,
2013-07-14 05:48:00,53.1,46.0,29.77,WNW,291,9.0,-999.0,78,-99.99,,,0.00,weatherlink.com 1.10,2013-07-14 11:48:00,
2013-07-14 06:03:00,53.3,46.0,29.77,NNW,331,5.0,-999.0,77,-99.99,,,0.00,weatherlink.com 1.10,2013-07-14 12:03:00,
2013-07-14 06:18:00,53.4,46.0,29.77,WNW,291,5.0,-999.0,76,-99.99,,,0.00,weatherlink.com 1.10,2013-07-14 12:18:00,
2013-07-14 06:33:00,54.0,46.0,29.77,NW,313,6.0,-999.0,73,-99.99,,,0.00,weatherlink.com 1.10,2013-07-14 12:33:00,
2013-07-14 06:48:00,54.8,47.0,29.78,NNE,13,0.0,-999.0,74,-99.99,,,0.00,weatherlink.com 1.10,2013-07-14 12:48:00,
2013-07-14 07:03:00,55.6,47.0,29.79,NW,318,5.0,-999.0,73,-99.99,,,0.00,weatherlink.com 1.10,2013-07-14 13:03:00,
2013-07-14 07:18:00,57.0,48.0,29.79,North,355,6.0,-999.0,72,-99.99,,,0.00,weatherlink.com 1.10,2013-07-14 13:18:00,
2013-07-14 07:34:00,58.6,48.0,29.78,North,360,2.0,-999.0,67,-99.99,,,0.00,weatherlink.com 1.10,2013-07-14 13:34:00,
2013-07-14 07:49:00,59.8,49.0,29.80,SE,132,2.0,-999.0,67,-99.99,,,0.00,weatherlink.com 1.10,2013-07-14 13:49:00,
2013-07-14 08:04:00,60.3,49.0,29.80,SE,136,0.0,-999.0,66,-99.99,,,0.00,weatherlink.com 1.10,2013-07-14 14:04:00,
2013-07-14 08:19:00,61.1,49.0,29.79,SE,136,0.0,-999.0,65,-99.99,,,0.00,weatherlink.com 1.10,2013-07-14 14:19:00,
2013-07-14 08:34:00,62.0,49.0,29.80,SE,136,0.0,-999.0,63,-99.99,,,0.00,weatherlink.com 1.10,2013-07-14 14:34:00,
2013-07-14 08:49:00,63.2,50.0,29.80,SE,136,1.0,-999.0,62,-99.99,,,0.00,weatherlink.com 1.10,2013-07-14 14:49:00,
2013-07-14 09:04:00,65.0,51.0,29.81,NNE,23,4.0,-999.0,60,-99.99,,,0.00,weatherlink.com 1.10,2013-07-14 15:04:00,
2013-07-14 09:19:00,67.5,52.0,29.81,North,360,0.0,-999.0,57,-99.99,,,0.00,weatherlink.com 1.10,2013-07-14 15:19:00,
2013-07-14 09:34:00,69.0,54.0,29.81,NE,49,0.0,-999.0,59,-99.99,,,0.00,weatherlink.com 1.10,2013-07-14 15:34:00,
2013-07-14 09:49:00,68.9,52.0,29.81,NNE,24,10.0,-999.0,56,-99.99,,,0.00,weatherlink.com 1.10,2013-07-14 15:49:00,
2013-07-14 10:04:00,68.6,53.0,29.82,ESE,111,3.0,-999.0,58,-99.99,,,0.00,weatherlink.com 1.10,2013-07-14 16:04:00,
2013-07-14 10:19:00,69.5,53.0,29.82,ESE,113,9.0,-999.0,56,-99.99,,,0.00,weatherlink.com 1.10,2013-07-14 16:19:00,
2013-07-14 10:34:00,70.0,53.0,29.83,NE,51,5.0,-999.0,56,-99.99,,,0.00,weatherlink.com 1.10,2013-07-14 16:34:00,
2013-07-14 10:49:00,68.5,52.0,29.83,North,360,6.0,-999.0,56,-99.99,,,0.00,weatherlink.com 1.10,2013-07-14 16:49:00,
2013-07-14 11:04:00,66.0,54.0,29.84,SE,134,8.0,-999.0,65,-99.99,,,0.00,weatherlink.com 1.10,2013-07-14 17:04:00,
2013-07-14 11:19:00,64.8,55.0,29.85,SE,124,11.0,-999.0,70,-99.99,,,0.00,weatherlink.com 1.10,2013-07-14 17:19:00,
2013-07-14 11:34:00,64.1,55.0,29.84,SE,130,4.0,-999.0,71,-99.99,,,0.00,weatherlink.com 1.10,2013-07-14 17:34:00,
2013-07-14 11:49:00,63.7,54.0,29.85,SE,134,0.0,-999.0,71,-99.99,,,0.00,weatherlink.com 1.10,2013-07-14 17:49:00,
2013-07-14 12:04:00,62.7,54.0,29.85,ESE,112,0.0,-999.0,73,-99.99,,,0.00,weatherlink.com 1.10,2013-07-14 18:04:00,
2013-07-14 12:19:00,62.6,55.0,29.85,SE,144,10.0,-999.0,75,-99.99,,,0.00,weatherlink.com 1.10,2013-07-14 18:19:00,
2013-07-14 12:34:00,63.1,54.0,29.86,SE,130,2.0,-999.0,72,-99.99,,,0.00,weatherlink.com 1.10,2013-07-14 18:34:00,
2013-07-14 12:49:00,61.4,54.0,29.85,SSE,167,0.0,-999.0,76,-99.99,,,0.00,weatherlink.com 1.10,2013-07-14 18:49:00,
2013-07-14 13:04:00,59.6,53.0,29.85,SE,124,0.0,-999.0,80,-99.99,,,0.00,weatherlink.com 1.10,2013-07-14 19:04:00,
2013-07-14 13:19:00,58.8,53.0,29.86,North,360,4.0,-999.0,81,-99.99,,,0.00,weatherlink.com 1.10,2013-07-14 19:19:00,
2013-07-14 13:34:00,57.7,53.0,29.86,ESE,121,0.0,-999.0,83,-99.99,,,0.00,weatherlink.com 1.10,2013-07-14 19:34:00,
2013-07-14 13:49:00,58.6,53.0,29.86,ESE,121,0.0,-999.0,82,-99.99,,,0.00,weatherlink.com 1.10,2013-07-14 19:49:00,
2013-07-14 14:04:00,58.4,53.0,29.86,ENE,58,4.0,-999.0,83,-99.99,,,0.00,weatherlink.com 1.10,2013-07-14 20:04:00,
2013-07-14 14:19:00,57.9,54.0,29.87,North,350,9.0,-999.0,85,-99.99,,,0.00,weatherlink.com 1.10,2013-07-14 20:19:00,
2013-07-14 14:34:00,57.8,53.0,29.86,NNE,14,5.0,-999.0,84,-99.99,,,0.00,weatherlink.com 1.10,2013-07-14 20:34:00,
2013-07-14 14:49:00,58.7,53.0,29.87,North,11,0.0,-999.0,80,-99.99,,,0.00,weatherlink.com 1.10,2013-07-14 20:49:00,
2013-07-14 15:04:00,59.9,54.0,29.87,North,11,5.0,-999.0,81,-99.99,,,0.00,weatherlink.com 1.10,2013-07-14 21:04:00,
2013-07-14 15:19:00,61.3,57.0,29.86,WNW,302,3.0,-999.0,84,-99.99,,,0.01,weatherlink.com 1.10,2013-07-14 21:19:00,
2013-07-14 15:34:00,62.2,56.0,29.86,NW,311,5.0,-999.0,80,-99.99,,,0.01,weatherlink.com 1.10,2013-07-14 21:34:00,
2013-07-14 15:49:00,62.3,55.0,29.86,WNW,290,0.0,-999.0,77,-99.99,,,0.01,weatherlink.com 1.10,2013-07-14 21:49:00,
2013-07-14 16:04:00,61.9,54.0,29.85,WNW,290,0.0,-999.0,75,-99.99,,,0.01,weatherlink.com 1.10,2013-07-14 22:04:00,
2013-07-14 16:19:00,62.3,54.0,29.85,WNW,291,3.0,-999.0,73,-99.99,,,0.01,weatherlink.com 1.10,2013-07-14 22:19:00,
2013-07-14 16:34:00,63.0,54.0,29.84,NW,313,5.0,-999.0,73,-99.99,,,0.01,weatherlink.com 1.10,2013-07-14 22:34:00,
2013-07-14 16:49:00,63.4,55.0,29.85,NNW,345,0.0,-999.0,73,-99.99,,,0.01,weatherlink.com 1.10,2013-07-14 22:49:00,
2013-07-14 17:04:00,63.6,54.0,29.85,NW,313,5.0,-999.0,72,-99.99,,,0.01,weatherlink.com 1.10,2013-07-14 23:04:00,
2013-07-14 17:20:00,63.3,53.0,29.84,NW,319,4.0,-999.0,69,-99.99,,,0.01,weatherlink.com 1.10,2013-07-14 23:20:00,
2013-07-14 17:35:00,63.1,54.0,29.84,NW,320,3.0,-999.0,72,-99.99,,,0.01,weatherlink.com 1.10,2013-07-14 23:35:00,
2013-07-14 17:50:00,62.9,54.0,29.83,NNW,340,3.0,-999.0,73,-99.99,,,0.01,weatherlink.com 1.10,2013-07-14 23:50:00,
2013-07-14 18:05:00,63.0,54.0,29.84,North,360,2.0,-999.0,72,-99.99,,,0.01,weatherlink.com 1.10,2013-07-15 00:05:00,
2013-07-14 18:20:00,62.7,54.0,29.83,North,360,0.0,-999.0,72,-99.99,,,0.01,weatherlink.com 1.10,2013-07-15 00:20:00,
2013-07-14 18:35:00,62.6,53.0,29.84,NNW,338,2.0,-999.0,72,-99.99,,,0.01,weatherlink.com 1.10,2013-07-15 00:35:00,
2013-07-14 18:50:00,62.4,53.0,29.84,NNW,339,0.0,-999.0,71,-99.99,,,0.01,weatherlink.com 1.10,2013-07-15 00:50:00,
2013-07-14 19:05:00,62.3,53.0,29.85,NNW,339,0.0,-999.0,72,-99.99,,,0.01,weatherlink.com 1.10,2013-07-15 01:05:00,
2013-07-14 19:20:00,62.0,52.0,29.85,NNW,340,0.0,-999.0,71,-99.99,,,0.01,weatherlink.com 1.10,2013-07-15 01:20:00,
2013-07-14 19:35:00,61.4,54.0,29.86,ESE,121,1.0,-999.0,77,-99.99,,,0.01,weatherlink.com 1.10,2013-07-15 01:35:00,
2013-07-14 19:50:00,60.9,54.0,29.85,North,360,0.0,-999.0,79,-99.99,,,0.01,weatherlink.com 1.10,2013-07-15 01:50:00,
2013-07-14 20:05:00,60.3,54.0,29.85,SE,129,0.0,-999.0,81,-99.99,,,0.01,weatherlink.com 1.10,2013-07-15 02:05:00,
2013-07-14 20:20:00,59.5,54.0,29.85,ENE,69,0.0,-999.0,82,-99.99,,,0.01,weatherlink.com 1.10,2013-07-15 02:20:00,
2013-07-14 20:35:00,59.0,54.0,29.85,ESE,120,0.0,-999.0,84,-99.99,,,0.01,weatherlink.com 1.10,2013-07-15 02:35:00,
2013-07-14 20:50:00,58.4,54.0,29.85,SSE,158,2.0,-999.0,86,-99.99,,,0.01,weatherlink.com 1.10,2013-07-15 02:50:00,
2013-07-14 21:05:00,57.9,54.0,29.85,ENE,78,3.0,-999.0,88,-99.99,,,0.02,weatherlink.com 1.10,2013-07-15 03:05:00,
2013-07-14 21:20:00,57.6,54.0,29.86,East,79,1.0,-999.0,89,-99.99,,,0.02,weatherlink.com 1.10,2013-07-15 03:20:00,
2013-07-14 21:35:00,57.5,55.0,29.86,East,79,0.0,-999.0,91,-99.99,,,0.02,weatherlink.com 1.10,2013-07-15 03:35:00,
2013-07-14 21:50:00,57.5,55.0,29.86,ENE,62,2.0,-999.0,92,-99.99,,,0.05,weatherlink.com 1.10,2013-07-15 03:50:00,
2013-07-14 22:05:00,57.5,55.0,29.86,ENE,63,0.0,-999.0,92,-99.99,,,0.07,weatherlink.com 1.10,2013-07-15 04:05:00,
2013-07-14 22:20:00,57.4,55.0,29.87,East,82,0.0,-999.0,92,-99.99,,,0.08,weatherlink.com 1.10,2013-07-15 04:20:00,
2013-07-14 22:35:00,57.3,55.0,29.87,SE,138,0.0,-999.0,92,-99.99,,,0.08,weatherlink.com 1.10,2013-07-15 04:35:00,
2013-07-14 22:51:00,55.7,53.0,29.86,SSE,162,12.0,-999.0,90,-99.99,,,0.26,weatherlink.com 1.10,2013-07-15 04:51:00,
2013-07-14 23:05:00,54.6,52.0,29.87,ESE,123,4.0,-999.0,91,-99.99,,,0.35,weatherlink.com 1.10,2013-07-15 05:05:00,
2013-07-14 23:20:00,53.9,52.0,29.86,SSE,150,6.0,-999.0,92,-99.99,,,0.36,weatherlink.com 1.10,2013-07-15 05:20:00,
2013-07-14 23:35:00,53.7,52.0,29.87,SE,138,0.0,-999.0,93,-99.99,,,0.37,weatherlink.com 1.10,2013-07-15 05:35:00,
2013-07-14 23:50:00,53.7,52.0,29.87,SE,145,0.0,-999.0,93,-99.99,,,0.37,weatherlink.com 1.10,2013-07-15 05:50:00,